Crabb, Texas
Current Conditions -  °F | °C
As of 12:53 AM on Saturday 29 Nov 2014 (Local Time) from KSGR Reporting Station
Clear Clear  
Wind Chill: 62°   Ceiling: Unl
Heat Index: 62°   Visibility: 10mi
Dew Point: 58°   Wind: 9mph
Humidity: 86%   Direction: 180°S
Pressure: 30.12"   Gusts: NA
Location:  29.4892°N, 95.6914°W
Report Text: KSGR 290653Z AUTO 18008KT 10SM CLR 17/14 A3012 RMK AO2 SLP200 T01670144
Loading
Personal Weather Stations






























Interactive Weather Map New forecast layout! Learn more

10-Day Weather Forecast

Advertisements
Track Severe Weather on mobile